Portada
METAR-TAF:

METAR-TAF

Aeropuertos :

Aeropuerto Internacional de Nador

Nador, Marruecos

latitud: 34-59-20N, longitud: 003-01-42W, altitud: 175 m

Observación

El informe se hizo hace 1 hora y 8 minutos, a las 06:00 UTC
Viento 4 kt del oeste-noroeste
Temperatura 16°C
Humedad 68%
Presión 1014 hPa
Visibilidad 10 km o más
Escasas nubes a una altura de 2000 ft

METAR: GMMW 250600Z 29004KT 9999 FEW020 16/10 Q1014

Hora: 07:08 (07:08 UTC)

Pronóstico

El informe se hizo hace 2 horas y 8 minutos, a las 05:00 UTC
Pronóstico válido del 25 a las 06 UTC al 26 a las 12 UTC
Viento 2 kt con dirección variable
Visibilidad 10 km o más
Escasas nubes a una altura de 2000 ft
Evolucionando progresivamente
del 25 a las 10 UTC al 25 a las 12 UTC
Viento 10 kt del noreste

TAF: GMMW 250500Z 2506/2612 VRB02KT 9999 FEW020 BECMG 2510/2512 04010KT

Observaciones y pronósticos meteorológicos de más de 4000 aeropuertos (mensajes METAR y TAF).

Los puntos amarillos y rojos representan las estaciones disponibles.

Ponga el ratón en el punto deseado para ver el nombre de la estación.

Haga clic para ver las observaciones y los pronósticos meteorológicos.

Para cambiar el mapa : haga clic en los botones verdes con una cruz de color negro para hacer un zoom, en el botón verde con un guión para alejar o en las flechas verdes para mapas adyacentes.


METAR-TAF: